Time;durP1;ratioP1;P1;durP2;ratioP2;P2;SDS_P1;SDS_P2;PMS_P1;PMS_P2;Temp;Humidity;BMP_temperature;BMP_pressure;BME280_temperature;BME280_humidity;BME280_pressure;Samples;Min_cycle;Max_cycle;Signal;HPM_P1;HPM_P2
2023/08/01 00:02:20;;;;;;;9.43;4.97;;;19.70;99.90;;;;;;4913223;29;20115;-77
2023/08/01 00:04:46;;;;;;;13.45;5.65;;;19.80;99.90;;;;;;4914587;29;20115;-75
2023/08/01 00:07:11;;;;;;;14.00;5.47;;;19.70;99.90;;;;;;4914643;29;20028;-78
2023/08/01 00:09:37;;;;;;;13.60;5.28;;;19.60;99.90;;;;;;4914481;29;20027;-76
2023/08/01 00:12:03;;;;;;;8.43;4.38;;;19.60;99.90;;;;;;4914333;29;20031;-78
2023/08/01 00:14:29;;;;;;;11.32;5.65;;;19.60;99.90;;;;;;4914648;29;20024;-77
2023/08/01 00:16:55;;;;;;;12.85;5.90;;;19.60;99.90;;;;;;4914250;29;20055;-77
2023/08/01 00:19:21;;;;;;;13.18;7.20;;;19.50;99.90;;;;;;4914270;29;20092;-77
2023/08/01 00:21:47;;;;;;;14.32;8.18;;;19.50;99.90;;;;;;4913626;29;20564;-75
2023/08/01 00:24:12;;;;;;;20.88;11.25;;;19.50;99.90;;;;;;4913645;29;20025;-77
2023/08/01 00:26:38;;;;;;;19.48;12.18;;;19.50;99.90;;;;;;4915223;29;20028;-77
2023/08/01 00:29:04;;;;;;;21.50;12.93;;;19.40;99.90;;;;;;4900794;29;20028;-77
2023/08/01 00:31:30;;;;;;;20.33;13.13;;;19.40;99.90;;;;;;4897973;29;20375;-74
2023/08/01 00:33:57;;;;;;;27.33;13.88;;;19.40;99.90;;;;;;4917500;29;20087;-77
2023/08/01 00:36:23;;;;;;;19.23;13.80;;;19.40;99.90;;;;;;4917705;29;20028;-77
2023/08/01 00:38:49;;;;;;;19.90;14.25;;;19.40;99.90;;;;;;4917281;29;20419;-75
2023/08/01 00:41:14;;;;;;;19.58;13.88;;;19.40;99.90;;;;;;4904339;29;20439;-77
2023/08/01 00:43:40;;;;;;;18.52;12.35;;;19.40;99.90;;;;;;4920791;29;20570;-76
2023/08/01 00:46:08;;;;;;;17.20;10.52;;;19.40;99.90;;;;;;4900610;29;20455;-76
2023/08/01 00:48:34;;;;;;;18.00;11.70;;;19.40;99.90;;;;;;4917855;29;20035;-78
2023/08/01 00:51:01;;;;;;;18.77;11.38;;;19.30;99.90;;;;;;4917743;29;20447;-75
2023/08/01 00:53:29;;;;;;;20.13;12.40;;;19.40;99.90;;;;;;4900816;29;20039;-73
2023/08/01 00:55:56;;;;;;;16.70;11.27;;;19.40;99.90;;;;;;4899956;29;20160;-76
2023/08/01 00:58:22;;;;;;;17.13;11.23;;;19.30;99.90;;;;;;4917517;29;20127;-76
2023/08/01 01:00:48;;;;;;;16.17;10.32;;;19.30;99.90;;;;;;4899566;29;20109;-76
2023/08/01 01:03:14;;;;;;;16.73;11.35;;;19.40;99.90;;;;;;4917291;29;20488;-75
2023/08/01 01:05:47;;;;;;;18.50;12.10;;;19.20;99.90;;;;;;4917658;29;20028;-74
2023/08/01 01:08:13;;;;;;;15.20;9.48;;;19.20;99.90;;;;;;4900375;29;20036;-73
2023/08/01 01:10:39;;;;;;;14.60;8.38;;;19.20;99.90;;;;;;4896073;29;20059;-77
2023/08/01 01:13:05;;;;;;;17.10;9.20;;;19.00;99.90;;;;;;4917131;29;20468;-76
2023/08/01 01:15:31;;;;;;;13.75;8.70;;;19.00;99.90;;;;;;4917362;29;20020;-76
2023/08/01 01:17:57;;;;;;;18.55;9.30;;;19.00;99.90;;;;;;4900108;29;20039;-76
2023/08/01 01:20:24;;;;;;;16.20;8.80;;;19.00;99.90;;;;;;4917231;29;20484;-76
2023/08/01 01:22:55;;;;;;;14.25;8.55;;;19.00;99.90;;;;;;4916264;29;20496;-75
2023/08/01 01:25:22;;;;;;;16.27;9.13;;;18.90;99.90;;;;;;4898630;29;20114;-76
2023/08/01 01:27:53;;;;;;;12.40;8.00;;;19.00;99.90;;;;;;4900053;29;20052;-75
2023/08/01 01:30:20;;;;;;;17.35;8.43;;;18.90;99.90;;;;;;4917244;29;20088;-75
2023/08/01 01:32:46;;;;;;;16.10;8.23;;;19.00;99.90;;;;;;4916701;29;20115;-77
2023/08/01 01:35:12;;;;;;;12.93;6.90;;;18.90;99.90;;;;;;4916562;29;20103;-78
2023/08/01 01:37:38;;;;;;;13.18;7.15;;;18.90;99.90;;;;;;4899037;29;20099;-76
2023/08/01 01:40:04;;;;;;;12.73;7.68;;;18.90;99.90;;;;;;4916326;29;20032;-75
2023/08/01 01:42:30;;;;;;;16.00;7.47;;;18.80;99.90;;;;;;4911795;29;20560;-76
2023/08/01 01:44:55;;;;;;;15.38;7.75;;;18.80;99.90;;;;;;4899601;29;20028;-74
2023/08/01 01:47:22;;;;;;;13.05;7.13;;;18.80;99.90;;;;;;4898729;29;20036;-75
2023/08/01 01:49:47;;;;;;;14.38;6.47;;;18.70;99.90;;;;;;4916880;29;20104;-77
2023/08/01 01:52:13;;;;;;;14.80;7.18;;;18.80;99.90;;;;;;4916115;29;20032;-76
2023/08/01 01:54:39;;;;;;;12.05;6.32;;;18.80;99.90;;;;;;4916488;29;20103;-76
2023/08/01 01:57:05;;;;;;;11.55;7.43;;;18.80;99.90;;;;;;4915361;29;20024;-76
2023/08/01 01:59:31;;;;;;;12.43;5.25;;;18.70;99.90;;;;;;4899242;29;20036;-77
2023/08/01 02:01:57;;;;;;;14.98;5.93;;;18.70;99.90;;;;;;4896181;29;20044;-73
2023/08/01 02:04:22;;;;;;;14.73;6.32;;;18.70;99.90;;;;;;4898358;29;20537;-76
2023/08/01 02:06:48;;;;;;;10.50;5.93;;;18.70;99.90;;;;;;4916120;29;20476;-77
2023/08/01 02:09:14;;;;;;;11.52;6.03;;;18.70;99.90;;;;;;4915820;29;20028;-74
2023/08/01 02:11:40;;;;;;;13.02;6.18;;;18.70;99.90;;;;;;4910401;29;20040;-75
2023/08/01 02:14:08;;;;;;;11.82;5.47;;;18.70;99.90;;;;;;4898005;29;20032;-76
2023/08/01 02:16:37;;;;;;;12.43;6.35;;;18.70;99.90;;;;;;4915965;29;20039;-76
2023/08/01 02:19:03;;;;;;;11.80;6.60;;;18.60;99.90;;;;;;4899002;29;20083;-77
2023/08/01 02:21:32;;;;;;;13.38;6.05;;;18.60;99.90;;;;;;4896370;29;20070;-77
2023/08/01 02:23:58;;;;;;;11.48;6.25;;;18.60;99.90;;;;;;4903200;29;20059;-78
2023/08/01 02:26:24;;;;;;;11.63;6.10;;;18.50;99.90;;;;;;4915626;29;20039;-77
2023/08/01 02:28:50;;;;;;;9.65;5.65;;;18.50;99.90;;;;;;4934781;29;20064;-77
2023/08/01 02:31:16;;;;;;;14.95;5.68;;;18.50;99.90;;;;;;4917617;29;20028;-76
2023/08/01 02:33:42;;;;;;;10.52;5.50;;;18.40;99.90;;;;;;4913902;29;20040;-77
2023/08/01 02:36:08;;;;;;;21.65;5.85;;;18.40;99.90;;;;;;4934791;29;20027;-76
2023/08/01 02:38:34;;;;;;;12.63;5.32;;;18.50;99.90;;;;;;4934749;29;20047;-73
2023/08/01 02:41:00;;;;;;;11.63;5.60;;;18.30;99.90;;;;;;4917063;29;20046;-76
2023/08/01 02:43:25;;;;;;;11.63;5.80;;;18.30;99.90;;;;;;4917368;29;20047;-77
2023/08/01 02:45:51;;;;;;;11.38;5.68;;;18.20;99.90;;;;;;4921189;29;20024;-77
2023/08/01 02:48:17;;;;;;;11.02;5.32;;;18.10;99.90;;;;;;4934136;29;20031;-76
2023/08/01 02:50:43;;;;;;;13.82;6.63;;;18.10;99.90;;;;;;4933262;29;20026;-76
2023/08/01 02:53:08;;;;;;;14.50;6.55;;;18.10;99.90;;;;;;4932011;29;20068;-77
2023/08/01 02:55:34;;;;;;;12.65;6.45;;;18.10;99.90;;;;;;4933088;29;20547;-77
2023/08/01 02:58:00;;;;;;;26.55;14.48;;;18.00;99.90;;;;;;4934547;29;20392;-76
2023/08/01 03:00:26;;;;;;;22.70;15.10;;;17.80;99.90;;;;;;4916747;29;20464;-76
2023/08/01 03:02:52;;;;;;;24.20;13.27;;;17.90;99.90;;;;;;4933633;29;20040;-77
2023/08/01 03:05:17;;;;;;;24.30;13.75;;;17.90;99.90;;;;;;4916016;29;20063;-76
2023/08/01 03:07:43;;;;;;;22.27;12.95;;;18.00;99.90;;;;;;4916122;29;20043;-74
2023/08/01 03:10:11;;;;;;;18.15;11.05;;;18.00;99.90;;;;;;4913614;29;20063;-78
2023/08/01 03:12:37;;;;;;;18.75;11.35;;;18.10;99.90;;;;;;4916339;29;20070;-76
2023/08/01 03:15:03;;;;;;;16.73;9.48;;;18.10;99.90;;;;;;4934289;29;20035;-77
2023/08/01 03:17:29;;;;;;;17.50;8.90;;;18.10;99.90;;;;;;4933783;29;20023;-77
2023/08/01 03:19:55;;;;;;;14.40;7.85;;;18.20;99.90;;;;;;4933364;29;20043;-76
2023/08/01 03:22:21;;;;;;;13.48;8.20;;;18.20;99.90;;;;;;4933465;29;20052;-74
2023/08/01 03:24:48;;;;;;;15.68;7.47;;;18.20;99.90;;;;;;4933858;29;20535;-76
2023/08/01 03:27:13;;;;;;;12.35;6.28;;;18.20;99.90;;;;;;4913016;29;20393;-77
2023/08/01 03:29:40;;;;;;;17.40;6.97;;;18.10;99.90;;;;;;4932843;29;20050;-74
2023/08/01 03:32:06;;;;;;;14.27;6.72;;;18.20;99.90;;;;;;4915910;29;20027;-78
2023/08/01 03:34:32;;;;;;;14.25;7.25;;;18.20;99.90;;;;;;4936296;29;20030;-76
2023/08/01 03:36:58;;;;;;;12.60;6.70;;;18.10;99.90;;;;;;4933764;29;20155;-76
2023/08/01 03:39:23;;;;;;;12.38;6.07;;;18.10;99.90;;;;;;4915115;29;20551;-76
2023/08/01 03:41:49;;;;;;;15.15;6.13;;;18.40;99.90;;;;;;4916089;29;20129;-73
2023/08/01 03:44:16;;;;;;;11.30;6.00;;;18.60;99.90;;;;;;4933559;29;20055;-73
2023/08/01 03:46:43;;;;;;;15.70;6.43;;;18.60;99.90;;;;;;4916623;29;20486;-77
2023/08/01 03:49:09;;;;;;;10.73;6.40;;;19.00;99.90;;;;;;4933166;29;20028;-77
2023/08/01 03:51:38;;;;;;;13.13;5.82;;;19.70;99.90;;;;;;4933560;29;20028;-77
2023/08/01 03:54:04;;;;;;;9.05;4.85;;;19.80;99.90;;;;;;4933867;29;20034;-77
2023/08/01 03:56:30;;;;;;;12.82;5.30;;;20.50;99.90;;;;;;4916075;29;20031;-74
2023/08/01 03:58:56;;;;;;;11.65;5.65;;;21.20;99.90;;;;;;4932556;29;20046;-74
2023/08/01 04:01:22;;;;;;;10.82;5.60;;;21.70;99.90;;;;;;4932358;29;20032;-74
2023/08/01 04:03:48;;;;;;;26.35;11.77;;;22.40;99.90;;;;;;4934346;29;20028;-77
2023/08/01 04:06:15;;;;;;;25.13;12.65;;;22.90;99.90;;;;;;4916844;29;20070;-76
2023/08/01 04:08:41;;;;;;;23.05;9.23;;;23.00;99.90;;;;;;4932463;29;20420;-77
2023/08/01 04:11:07;;;;;;;15.43;7.25;;;23.60;99.90;;;;;;4932655;29;20075;-77
2023/08/01 04:13:32;;;;;;;16.50;8.18;;;23.90;99.90;;;;;;4933472;29;20031;-78
2023/08/01 04:15:58;;;;;;;16.85;6.82;;;24.30;99.90;;;;;;4932967;29;20024;-77
2023/08/01 04:18:24;;;;;;;15.27;6.13;;;24.70;99.90;;;;;;4933483;29;20451;-75
2023/08/01 04:20:50;;;;;;;13.35;5.72;;;24.90;99.90;;;;;;4932931;29;20123;-79
2023/08/01 04:23:15;;;;;;;11.48;5.60;;;25.30;99.90;;;;;;4914629;29;20076;-78
2023/08/01 04:25:42;;;;;;;10.10;4.72;;;25.20;99.90;;;;;;4933341;29;20028;-79
2023/08/01 04:28:07;;;;;;;10.00;4.70;;;26.20;99.90;;;;;;4933085;29;20039;-75
2023/08/01 04:30:33;;;;;;;10.07;5.03;;;26.80;99.90;;;;;;4933203;29;20024;-78
2023/08/01 04:32:59;;;;;;;10.65;5.05;;;26.80;99.90;;;;;;4932670;29;20024;-74
2023/08/01 04:35:25;;;;;;;11.60;5.72;;;27.00;99.90;;;;;;4932586;29;20055;-74
2023/08/01 04:37:50;;;;;;;9.35;5.15;;;27.20;99.90;;;;;;4932065;29;20031;-78
2023/08/01 04:40:16;;;;;;;7.97;5.45;;;27.40;99.90;;;;;;4932979;29;20028;-79
2023/08/01 04:42:42;;;;;;;8.98;4.80;;;27.00;99.90;;;;;;4933079;29;20024;-78
2023/08/01 04:45:08;;;;;;;8.60;5.18;;;26.50;99.90;;;;;;4929472;29;20187;-73
2023/08/01 04:47:35;;;;;;;9.48;5.32;;;27.10;99.90;;;;;;4932872;29;20016;-78
2023/08/01 04:50:01;;;;;;;10.20;5.20;;;26.40;99.90;;;;;;4932904;29;20031;-79
2023/08/01 04:52:27;;;;;;;13.48;4.93;;;27.10;99.90;;;;;;4932979;29;20031;-79
2023/08/01 04:54:52;;;;;;;10.30;5.13;;;26.70;99.90;;;;;;4932569;29;20488;-74
2023/08/01 04:57:18;;;;;;;12.48;4.38;;;26.50;99.90;;;;;;4932993;29;20028;-75
2023/08/01 04:59:44;;;;;;;9.00;4.30;;;27.00;99.90;;;;;;4933015;29;20395;-80
2023/08/01 05:02:10;;;;;;;5.55;4.03;;;27.00;99.90;;;;;;4932808;29;20163;-79
2023/08/01 05:04:36;;;;;;;6.97;4.47;;;26.50;99.90;;;;;;4932496;29;20031;-75
2023/08/01 05:07:02;;;;;;;8.70;4.05;;;26.90;99.90;;;;;;4933206;29;20024;-73
2023/08/01 05:09:27;;;;;;;8.18;4.22;;;25.60;99.90;;;;;;4933038;29;20035;-80
2023/08/01 05:11:53;;;;;;;14.05;4.43;;;24.50;99.90;;;;;;4933075;29;20035;-80
2023/08/01 05:14:19;;;;;;;13.38;5.30;;;24.20;99.90;;;;;;4934992;29;20063;-79
2023/08/01 05:16:45;;;;;;;13.02;4.65;;;24.00;99.90;;;;;;4919413;29;20032;-78
2023/08/01 05:19:11;;;;;;;10.73;5.93;;;23.90;99.90;;;;;;4935890;29;20047;-73
2023/08/01 05:21:36;;;;;;;10.60;4.50;;;22.70;99.90;;;;;;4935847;29;20087;-79
2023/08/01 05:24:02;;;;;;;12.43;4.95;;;22.70;99.90;;;;;;4936527;29;20517;-74
2023/08/01 05:26:28;;;;;;;10.05;4.95;;;22.90;99.90;;;;;;4936238;29;20043;-74
2023/08/01 05:28:54;;;;;;;10.05;4.80;;;23.20;99.90;;;;;;4936152;29;20028;-72
2023/08/01 05:31:20;;;;;;;6.60;3.42;;;23.40;99.90;;;;;;4935631;29;20040;-75
2023/08/01 05:33:45;;;;;;;7.03;4.15;;;23.40;99.90;;;;;;4935962;29;20047;-77
2023/08/01 05:36:11;;;;;;;8.85;3.78;;;23.40;99.90;;;;;;4935493;29;20122;-72
2023/08/01 05:38:37;;;;;;;8.23;4.32;;;23.50;99.90;;;;;;4936112;29;20039;-78
2023/08/01 05:41:03;;;;;;;9.60;5.10;;;23.20;99.90;;;;;;4935698;29;20563;-76
2023/08/01 05:43:28;;;;;;;9.43;3.92;;;23.30;99.90;;;;;;4935835;29;20043;-79
2023/08/01 05:45:54;;;;;;;12.65;4.97;;;23.50;99.90;;;;;;4935490;29;20054;-79
2023/08/01 05:48:21;;;;;;;8.55;4.63;;;23.40;99.90;;;;;;4935415;29;20036;-73
2023/08/01 05:50:46;;;;;;;7.05;4.35;;;23.60;99.90;;;;;;4929420;29;20027;-78
2023/08/01 05:53:12;;;;;;;6.53;3.38;;;23.60;99.90;;;;;;4936806;29;20032;-77
2023/08/01 05:55:38;;;;;;;6.15;3.13;;;23.00;99.90;;;;;;4924134;29;20087;-78
2023/08/01 05:58:04;;;;;;;7.82;3.85;;;23.60;99.90;;;;;;4933410;29;20043;-74
2023/08/01 06:00:30;;;;;;;9.00;4.63;;;23.80;99.90;;;;;;4936855;29;20028;-78
2023/08/01 06:02:56;;;;;;;11.82;5.43;;;23.50;99.90;;;;;;4929803;29;20067;-77
2023/08/01 06:05:22;;;;;;;12.23;4.50;;;24.00;99.90;;;;;;4937070;29;20048;-74
2023/08/01 06:07:48;;;;;;;6.53;3.95;;;24.10;99.90;;;;;;4936670;29;20024;-78
2023/08/01 06:10:14;;;;;;;16.67;5.88;;;24.10;99.90;;;;;;4937010;29;20023;-73
2023/08/01 06:12:39;;;;;;;9.73;5.30;;;24.20;99.90;;;;;;4943608;29;20027;-73
2023/08/01 06:15:05;;;;;;;7.68;4.07;;;24.40;99.90;;;;;;4931522;29;20055;-79
2023/08/01 06:17:31;;;;;;;10.27;4.20;;;24.70;99.90;;;;;;4939738;29;20035;-78
2023/08/01 06:19:57;;;;;;;6.38;3.63;;;24.70;99.90;;;;;;4937002;29;20035;-78
2023/08/01 06:22:23;;;;;;;6.38;3.42;;;24.80;99.90;;;;;;4933239;29;20044;-74
2023/08/01 06:24:48;;;;;;;10.63;5.82;;;24.90;99.90;;;;;;4923423;29;20032;-78
2023/08/01 06:27:15;;;;;;;6.82;4.15;;;25.00;99.90;;;;;;4935799;29;20027;-76
2023/08/01 06:29:40;;;;;;;6.47;4.25;;;25.00;99.90;;;;;;4936119;29;20035;-75
2023/08/01 06:32:07;;;;;;;15.90;4.45;;;25.10;99.90;;;;;;4934357;29;20027;-74
2023/08/01 06:34:32;;;;;;;7.00;3.30;;;25.30;99.90;;;;;;4921733;29;20044;-75
2023/08/01 06:36:58;;;;;;;7.70;3.72;;;25.20;99.90;;;;;;4935383;29;20027;-78
2023/08/01 06:39:24;;;;;;;8.55;4.00;;;25.00;99.90;;;;;;4935226;29;20035;-77
2023/08/01 06:41:50;;;;;;;7.28;3.60;;;25.30;99.90;;;;;;4920386;29;20059;-76
2023/08/01 06:44:15;;;;;;;9.48;4.20;;;25.50;99.90;;;;;;4934364;29;20038;-73
2023/08/01 06:46:41;;;;;;;9.07;4.00;;;25.60;99.90;;;;;;4925243;29;20055;-75
2023/08/01 06:49:07;;;;;;;10.45;3.72;;;25.80;99.90;;;;;;4947538;29;20040;-72
2023/08/01 06:51:33;;;;;;;7.80;3.33;;;26.10;99.90;;;;;;4936727;29;20111;-77
2023/08/01 06:53:59;;;;;;;7.32;3.53;;;26.10;99.90;;;;;;4936901;29;20020;-77
2023/08/01 06:56:25;;;;;;;5.97;3.50;;;26.30;99.90;;;;;;4923437;29;20461;-76
2023/08/01 06:58:53;;;;;;;4.40;2.70;;;25.80;99.90;;;;;;4919252;29;20416;-77
2023/08/01 07:01:19;;;;;;;6.43;3.20;;;26.00;99.90;;;;;;4923083;29;20032;-77
2023/08/01 07:03:45;;;;;;;5.47;3.05;;;26.30;99.90;;;;;;4933428;29;20032;-76
2023/08/01 07:06:11;;;;;;;5.57;3.17;;;26.70;99.90;;;;;;4923388;29;20151;-72
2023/08/01 07:08:37;;;;;;;11.95;3.70;;;26.90;99.90;;;;;;4933366;29;20111;-77
2023/08/01 07:11:03;;;;;;;10.48;3.85;;;27.30;99.90;;;;;;4929229;29;20031;-74
2023/08/01 07:13:28;;;;;;;8.07;3.67;;;27.70;99.90;;;;;;4934524;29;20079;-78
2023/08/01 07:15:54;;;;;;;6.63;3.67;;;27.60;99.90;;;;;;4932636;29;20027;-79
2023/08/01 07:18:20;;;;;;;6.10;3.10;;;27.90;99.90;;;;;;4924767;29;20130;-79
2023/08/01 07:20:46;;;;;;;4.85;2.72;;;27.40;99.90;;;;;;4932767;29;20024;-74
2023/08/01 07:23:11;;;;;;;7.32;3.22;;;27.70;99.90;;;;;;4933915;29;20054;-73
2023/08/01 07:25:37;;;;;;;6.82;3.10;;;27.80;99.90;;;;;;4928244;29;20028;-74
2023/08/01 07:28:03;;;;;;;9.20;3.13;;;28.00;95.60;;;;;;4931655;29;20118;-73
2023/08/01 07:30:29;;;;;;;8.93;2.92;;;28.40;95.00;;;;;;4931872;29;20059;-74
2023/08/01 07:32:56;;;;;;;5.70;2.50;;;28.50;94.00;;;;;;4917427;29;20029;-73
2023/08/01 07:35:22;;;;;;;4.15;2.67;;;;;;;;;;4925767;29;20400;-76
2023/08/01 07:37:48;;;;;;;6.30;3.13;;;28.90;93.40;;;;;;4933917;29;20128;-77
2023/08/01 07:40:13;;;;;;;5.38;2.65;;;28.90;92.60;;;;;;4936603;29;20067;-75
2023/08/01 07:42:39;;;;;;;5.43;2.85;;;28.90;93.30;;;;;;4926906;29;20032;-80
2023/08/01 07:45:07;;;;;;;5.22;2.75;;;29.00;94.50;;;;;;4935728;29;20035;-80
2023/08/01 07:47:32;;;;;;;6.70;2.90;;;29.00;93.60;;;;;;4931585;29;20020;-78
2023/08/01 07:49:58;;;;;;;9.30;2.38;;;29.40;95.00;;;;;;4930352;29;20151;-76
2023/08/01 07:52:24;;;;;;;14.43;2.88;;;29.20;92.40;;;;;;4923632;29;20077;-79
2023/08/01 07:54:50;;;;;;;7.07;2.53;;;29.00;92.40;;;;;;4927727;29;20156;-74
2023/08/01 07:57:16;;;;;;;5.05;3.00;;;29.00;91.90;;;;;;4935592;29;20134;-77
2023/08/01 07:59:41;;;;;;;5.72;2.33;;;29.30;91.80;;;;;;4934295;29;20051;-79
2023/08/01 08:02:07;;;;;;;7.22;3.60;;;29.20;91.90;;;;;;4921230;29;20119;-79
2023/08/01 08:04:33;;;;;;;4.55;2.30;;;29.30;91.70;;;;;;4929628;29;20039;-77
2023/08/01 08:07:00;;;;;;;8.13;3.22;;;29.20;92.60;;;;;;4934952;29;20027;-72
2023/08/01 08:09:27;;;;;;;3.17;2.50;;;29.40;92.20;;;;;;4935779;29;20028;-79
2023/08/01 08:11:52;;;;;;;5.95;2.65;;;29.30;90.90;;;;;;4934613;29;20049;-79
2023/08/01 08:14:20;;;;;;;7.07;2.95;;;29.40;92.30;;;;;;4929559;29;20105;-75
2023/08/01 08:16:46;;;;;;;6.88;2.50;;;29.30;91.50;;;;;;4924097;29;20115;-78
2023/08/01 08:19:12;;;;;;;7.20;2.72;;;29.60;91.10;;;;;;4934865;29;20135;-73
2023/08/01 08:21:38;;;;;;;7.88;2.60;;;28.60;90.30;;;;;;4934473;29;20126;-78
2023/08/01 08:24:03;;;;;;;7.32;3.20;;;29.00;90.90;;;;;;4933800;29;20077;-72
2023/08/01 08:26:29;;;;;;;5.20;2.42;;;28.10;91.70;;;;;;4935499;29;20024;-79
2023/08/01 08:28:55;;;;;;;5.85;2.30;;;28.70;92.80;;;;;;4934971;29;20032;-77
2023/08/01 08:31:21;;;;;;;4.70;2.70;;;;;;;;;;4924863;29;20020;-73
2023/08/01 08:33:47;;;;;;;4.93;2.33;;;29.70;92.20;;;;;;4935282;29;20024;-72
2023/08/01 08:36:13;;;;;;;5.57;2.25;;;;;;;;;;4934648;29;20028;-72
2023/08/01 08:38:40;;;;;;;8.13;2.22;;;29.70;99.90;;;;;;4934779;29;20035;-79
2023/08/01 08:41:13;;;;;;;5.50;2.33;;;29.70;99.90;;;;;;4934464;29;20066;-74
2023/08/01 08:43:41;;;;;;;8.10;2.78;;;29.90;99.90;;;;;;4934525;29;20052;-78
2023/08/01 08:46:08;;;;;;;4.18;2.22;;;29.90;99.90;;;;;;4927574;29;20664;-78
2023/08/01 08:48:37;;;;;;;10.45;2.90;;;29.70;99.90;;;;;;4937218;29;20023;-80
2023/08/01 08:51:03;;;;;;;4.60;1.90;;;29.90;91.00;;;;;;4937786;29;20568;-72
2023/08/01 08:53:30;;;;;;;3.60;2.22;;;;;;;;;;4938246;29;20027;-80
2023/08/01 08:55:57;;;;;;;4.60;2.65;;;;;;;;;;4935164;29;20046;-75
2023/08/01 08:58:23;;;;;;;7.00;2.03;;;;;;;;;;4928932;29;20039;-72
2023/08/01 09:00:50;;;;;;;3.90;2.45;;;;;;;;;;4937898;29;20016;-72
2023/08/01 09:03:16;;;;;;;7.75;2.47;;;29.70;99.90;;;;;;4938026;29;20083;-72
2023/08/01 09:05:46;;;;;;;4.28;2.70;;;;;;;;;;4937574;29;20067;-78
2023/08/01 09:08:16;;;;;;;5.53;2.73;;;;;;;;;;4934146;29;20474;-74
2023/08/01 09:10:42;;;;;;;5.68;2.95;;;;;;;;;;4933234;29;20024;-74
2023/08/01 09:13:09;;;;;;;4.82;2.22;;;;;;;;;;4937651;29;20102;-72
2023/08/01 09:15:36;;;;;;;4.82;2.35;;;;;;;;;;4937576;29;20032;-74
2023/08/01 09:18:06;;;;;;;6.95;2.70;;;;;;;;;;4937220;29;20111;-74
2023/08/01 09:20:43;;;;;;;3.08;1.80;;;30.50;91.00;;;;;;4933855;29;20040;-75
2023/08/01 09:23:10;;;;;;;4.95;1.90;;;30.80;89.60;;;;;;4936638;29;20055;-80
2023/08/01 09:25:36;;;;;;;5.60;2.42;;;30.80;88.10;;;;;;4947235;29;20058;-73
2023/08/01 09:28:02;;;;;;;3.70;2.03;;;30.60;88.40;;;;;;4937197;29;20039;-74
2023/08/01 09:30:28;;;;;;;4.40;2.22;;;29.90;90.30;;;;;;4937925;29;20024;-79
2023/08/01 09:32:54;;;;;;;3.40;2.10;;;29.80;91.40;;;;;;4935979;29;20039;-72
2023/08/01 09:35:21;;;;;;;4.30;2.35;;;29.70;90.40;;;;;;4935306;29;20031;-74
2023/08/01 09:37:47;;;;;;;2.95;1.80;;;29.90;90.10;;;;;;4945541;29;20038;-76
2023/08/01 09:40:14;;;;;;;4.90;1.77;;;30.20;90.00;;;;;;4937135;29;20391;-78
2023/08/01 09:42:40;;;;;;;3.75;1.70;;;30.40;91.30;;;;;;4936986;29;20028;-77
2023/08/01 09:45:26;;;;;;;5.43;2.45;;;30.30;88.90;;;;;;4937202;29;20032;-81
2023/08/01 09:47:52;;;;;;;3.60;2.17;;;29.90;88.60;;;;;;4936562;29;20046;-74
2023/08/01 09:50:23;;;;;;;10.10;2.22;;;29.80;90.10;;;;;;4936999;29;20432;-75
2023/08/01 09:52:52;;;;;;;6.18;2.40;;;29.70;89.70;;;;;;4936837;29;20039;-75
2023/08/01 09:55:34;;;;;;;3.65;1.80;;;29.50;90.50;;;;;;4937083;29;20046;-78
2023/08/01 09:58:01;;;;;;;5.93;1.83;;;29.60;89.20;;;;;;4937478;29;20044;-81
2023/08/01 10:00:28;;;;;;;7.13;2.53;;;29.90;89.50;;;;;;4936316;29;20444;-76
2023/08/01 10:02:59;;;;;;;5.22;2.30;;;30.10;91.10;;;;;;4940579;29;20399;-79
2023/08/01 10:05:31;;;;;;;9.25;2.30;;;30.30;88.30;;;;;;4930807;29;20032;-71
2023/08/01 10:08:02;;;;;;;5.20;2.25;;;29.90;90.30;;;;;;4938656;29;20483;-79
2023/08/01 10:10:29;;;;;;;4.43;2.70;;;29.90;90.00;;;;;;4935141;29;20047;-72
2023/08/01 10:12:57;;;;;;;4.03;2.10;;;29.90;89.80;;;;;;4938538;29;20095;-80
2023/08/01 10:15:26;;;;;;;4.63;2.45;;;29.60;88.50;;;;;;4935385;29;20419;-74
2023/08/01 10:17:52;;;;;;;4.00;2.22;;;29.10;88.20;;;;;;4932252;29;20031;-75
2023/08/01 10:20:19;;;;;;;5.55;2.13;;;29.60;90.40;;;;;;4934631;29;20502;-81
2023/08/01 10:22:45;;;;;;;5.53;2.75;;;29.90;90.60;;;;;;4934697;29;20054;-82
2023/08/01 10:25:12;;;;;;;6.57;2.53;;;30.10;88.30;;;;;;4935145;29;20435;-81
2023/08/01 10:27:38;;;;;;;9.93;2.92;;;30.00;87.20;;;;;;4935315;29;20428;-82
2023/08/01 10:30:06;;;;;;;5.05;2.47;;;29.50;89.80;;;;;;4924116;29;20031;-72
2023/08/01 10:32:34;;;;;;;2.45;1.83;;;29.50;87.80;;;;;;4935441;29;20039;-72
2023/08/01 10:35:00;;;;;;;4.65;2.47;;;29.90;90.30;;;;;;4933856;29;20031;-70
2023/08/01 10:37:26;;;;;;;4.78;2.47;;;30.10;89.00;;;;;;4934649;29;20043;-71
2023/08/01 10:39:59;;;;;;;6.60;2.22;;;30.30;90.60;;;;;;4934496;29;20028;-78
2023/08/01 10:42:26;;;;;;;2.60;1.80;;;30.10;89.70;;;;;;4936136;29;20027;-81
2023/08/01 10:44:51;;;;;;;3.38;1.98;;;30.40;90.60;;;;;;4935237;29;20039;-76
2023/08/01 10:47:31;;;;;;;3.05;1.70;;;30.40;87.80;;;;;;4931651;29;20027;-72
2023/08/01 10:49:57;;;;;;;4.63;1.67;;;30.20;86.90;;;;;;4934179;29;20024;-78
2023/08/01 10:52:28;;;;;;;8.13;2.28;;;29.70;87.10;;;;;;4935537;29;20361;-76
2023/08/01 10:55:05;;;;;;;3.15;1.92;;;30.00;89.10;;;;;;4935568;29;20072;-78
2023/08/01 10:57:46;;;;;;;5.43;2.17;;;30.00;87.40;;;;;;4935526;29;20098;-72
2023/08/01 11:00:17;;;;;;;3.70;1.55;;;30.10;86.20;;;;;;4928537;29;20040;-77
2023/08/01 11:02:50;;;;;;;2.73;1.80;;;30.20;87.40;;;;;;4930483;29;20031;-77
2023/08/01 11:05:16;;;;;;;4.38;2.00;;;30.30;87.30;;;;;;4935730;29;20032;-79
2023/08/01 11:07:42;;;;;;;5.63;2.00;;;30.20;84.90;;;;;;4935461;29;20030;-72
2023/08/01 11:10:13;;;;;;;4.00;1.70;;;30.00;88.20;;;;;;4935369;29;20035;-76
2023/08/01 11:12:43;;;;;;;8.95;2.55;;;30.00;89.50;;;;;;4935020;29;20020;-73
2023/08/01 11:15:12;;;;;;;3.00;1.80;;;29.90;87.20;;;;;;4918390;29;20047;-79
2023/08/01 11:17:39;;;;;;;7.47;2.17;;;30.00;88.20;;;;;;4935226;29;20023;-71
2023/08/01 11:20:09;;;;;;;2.72;1.58;;;30.10;86.70;;;;;;4935426;29;20381;-71
2023/08/01 11:22:36;;;;;;;3.45;1.75;;;30.20;87.20;;;;;;4934853;29;20484;-75
2023/08/01 11:25:02;;;;;;;2.35;1.63;;;30.30;88.60;;;;;;4935370;29;20365;-71
2023/08/01 11:27:28;;;;;;;6.70;1.70;;;30.20;87.30;;;;;;4934880;29;20027;-72
2023/08/01 11:29:54;;;;;;;4.30;1.83;;;30.40;89.50;;;;;;4935362;29;20028;-75
2023/08/01 11:32:21;;;;;;;3.05;1.90;;;30.40;88.10;;;;;;4935325;29;20032;-75
2023/08/01 11:34:47;;;;;;;4.75;2.05;;;30.30;85.80;;;;;;4935641;29;20027;-78
2023/08/01 11:37:15;;;;;;;4.13;2.00;;;29.80;85.90;;;;;;4935635;29;20543;-79
2023/08/01 11:39:41;;;;;;;6.25;1.98;;;29.90;85.90;;;;;;4934577;29;20035;-79
2023/08/01 11:42:07;;;;;;;4.75;2.05;;;30.10;87.30;;;;;;4935026;29;20020;-75
2023/08/01 11:44:32;;;;;;;2.60;1.48;;;30.30;87.80;;;;;;4934624;29;20051;-72
2023/08/01 11:46:58;;;;;;;1.95;1.70;;;30.30;85.90;;;;;;4935129;29;20020;-71
2023/08/01 11:49:26;;;;;;;7.13;1.83;;;30.40;86.00;;;;;;4934641;29;20032;-79
2023/08/01 11:51:51;;;;;;;4.82;2.10;;;30.30;86.70;;;;;;4935117;29;20364;-78
2023/08/01 11:54:17;;;;;;;3.35;1.77;;;30.30;88.00;;;;;;4934686;29;20112;-71
2023/08/01 11:56:43;;;;;;;1.92;1.45;;;30.40;91.60;;;;;;4935076;29;20118;-78
2023/08/01 11:59:16;;;;;;;3.08;1.80;;;30.20;86.00;;;;;;4933364;29;20532;-75
2023/08/01 12:01:46;;;;;;;5.68;2.00;;;30.50;86.20;;;;;;4914548;29;20043;-73
2023/08/01 12:04:23;;;;;;;7.10;1.92;;;30.50;91.70;;;;;;4926790;29;20032;-77
2023/08/01 12:06:49;;;;;;;3.00;1.75;;;30.30;87.90;;;;;;4916939;29;20024;-78
2023/08/01 12:09:15;;;;;;;3.75;1.73;;;30.50;88.20;;;;;;4930500;29;20035;-80
2023/08/01 12:11:42;;;;;;;2.50;1.85;;;30.60;88.40;;;;;;4929866;29;20031;-71
2023/08/01 12:14:11;;;;;;;2.38;1.45;;;30.40;86.70;;;;;;4935905;29;20514;-77
2023/08/01 12:16:39;;;;;;;1.95;1.73;;;30.30;85.60;;;;;;4933735;29;20040;-77
2023/08/01 12:19:05;;;;;;;7.75;1.77;;;30.50;86.70;;;;;;4928221;29;20032;-78
2023/08/01 12:21:33;;;;;;;3.13;1.70;;;30.30;87.80;;;;;;4930672;29;20036;-77
2023/08/01 12:24:00;;;;;;;3.63;1.98;;;30.50;87.10;;;;;;4934217;29;20069;-77
2023/08/01 12:26:26;;;;;;;6.03;2.03;;;30.50;87.60;;;;;;4924170;29;20059;-74
2023/08/01 12:28:52;;;;;;;3.47;1.58;;;30.60;86.90;;;;;;4923984;29;20028;-77
2023/08/01 12:31:20;;;;;;;6.45;1.73;;;30.60;85.10;;;;;;4935018;29;20042;-78
2023/08/01 12:33:46;;;;;;;1.85;1.35;;;30.90;86.40;;;;;;4936071;29;20024;-78
2023/08/01 12:36:13;;;;;;;4.25;2.00;;;30.80;86.90;;;;;;4939266;29;20052;-76
2023/08/01 12:38:39;;;;;;;9.48;1.98;;;31.00;86.30;;;;;;4938763;29;20483;-77
2023/08/01 12:41:06;;;;;;;3.13;1.88;;;31.00;88.40;;;;;;4939060;29;20035;-78
2023/08/01 12:43:32;;;;;;;6.07;1.70;;;31.10;99.90;;;;;;4938915;29;20075;-77